createdAt,value
2023-10-02T00:00:14.906Z,10.00
2023-10-02T00:02:43.262Z,9.40
2023-10-02T00:05:40.743Z,10.20
2023-10-02T00:15:06.280Z,9.30
2023-10-02T00:18:09.281Z,8.90
2023-10-02T00:21:38.209Z,10.10
2023-10-02T00:24:01.686Z,9.20
2023-10-02T00:24:51.850Z,9.70
2023-10-02T00:26:33.564Z,9.10
2023-10-02T00:29:30.545Z,9.80
2023-10-02T00:32:02.108Z,9.50
2023-10-02T00:34:39.343Z,8.50
2023-10-02T00:37:17.093Z,9.00
2023-10-02T00:39:49.688Z,9.30
2023-10-02T00:42:24.099Z,8.90
2023-10-02T00:45:10.433Z,9.00
2023-10-02T00:48:14.952Z,9.60
2023-10-02T00:50:53.858Z,9.00
2023-10-02T00:54:26.236Z,8.60
2023-10-02T00:57:40.344Z,8.30
2023-10-02T01:00:37.248Z,9.10
2023-10-02T01:03:22.173Z,8.30
2023-10-02T01:06:10.418Z,9.30
2023-10-02T01:09:00.558Z,9.50
2023-10-02T01:11:40.273Z,8.90
2023-10-02T01:17:02.363Z,9.70
2023-10-02T01:17:34.522Z,9.70
2023-10-02T01:20:34.023Z,9.00
2023-10-02T01:23:31.911Z,10.40
2023-10-02T01:26:25.304Z,8.90
2023-10-02T01:29:19.787Z,9.20
2023-10-02T01:31:53.355Z,9.40
2023-10-02T01:34:40.892Z,9.70
2023-10-02T01:37:32.682Z,9.50
2023-10-02T01:40:21.945Z,9.70
2023-10-02T01:42:49.945Z,9.50
2023-10-02T01:45:19.080Z,9.30
2023-10-02T01:47:46.296Z,8.70
2023-10-02T01:50:14.658Z,10.30
2023-10-02T01:52:52.019Z,9.30
2023-10-02T01:55:29.996Z,9.00
2023-10-02T01:57:57.051Z,9.50
2023-10-02T02:00:25.036Z,9.20
2023-10-02T02:03:18.689Z,9.60
2023-10-02T02:05:47.476Z,10.00
2023-10-02T02:08:23.623Z,9.20
2023-10-02T02:11:17.989Z,9.70
2023-10-02T02:13:49.248Z,9.50
2023-10-02T02:16:39.608Z,9.30
2023-10-02T02:19:07.259Z,10.00
2023-10-02T02:21:35.536Z,9.40
2023-10-02T02:24:08.566Z,9.40
2023-10-02T02:26:40.096Z,9.60
2023-10-02T02:29:28.018Z,9.50
2023-10-02T02:31:55.701Z,8.50
2023-10-02T02:34:25.765Z,9.90
2023-10-02T02:36:54.906Z,9.60
2023-10-02T02:39:23.576Z,10.00
2023-10-02T02:42:15.773Z,9.90
2023-10-02T02:44:49.225Z,9.40
2023-10-02T02:47:21.053Z,9.70
2023-10-02T02:49:52.142Z,10.20
2023-10-02T02:55:15.170Z,9.50
2023-10-02T02:57:47.996Z,9.30
2023-10-02T03:00:30.685Z,9.70
2023-10-02T03:03:01.158Z,10.00
2023-10-02T03:05:49.549Z,9.00
2023-10-02T03:08:16.839Z,9.60
2023-10-02T03:10:48.469Z,9.20
2023-10-02T03:13:18.415Z,9.10
2023-10-02T03:15:49.213Z,8.90
2023-10-02T03:18:24.611Z,9.90
2023-10-02T03:20:52.954Z,9.50
2023-10-02T03:23:20.000Z,9.30
2023-10-02T03:25:48.279Z,8.90
2023-10-02T03:28:27.944Z,9.80
2023-10-02T03:30:55.800Z,9.60
2023-10-02T03:33:23.849Z,9.80
2023-10-02T03:36:23.478Z,9.90
2023-10-02T03:38:51.777Z,8.10
2023-10-02T03:41:19.627Z,9.40
2023-10-02T03:43:49.666Z,10.30
2023-10-02T03:46:23.622Z,8.80
2023-10-02T03:48:52.179Z,9.40
2023-10-02T03:51:37.773Z,9.50
2023-10-02T03:54:21.774Z,10.00
2023-10-02T03:56:51.667Z,9.20
2023-10-02T03:59:22.356Z,9.40
2023-10-02T04:01:52.959Z,10.20
2023-10-02T04:04:22.345Z,9.50
2023-10-02T04:06:56.255Z,10.50
2023-10-02T04:09:24.947Z,10.40
2023-10-02T04:11:55.711Z,9.40
2023-10-02T04:14:36.133Z,9.90
2023-10-02T04:17:18.964Z,9.70
2023-10-02T04:19:53.863Z,10.00
2023-10-02T04:22:26.344Z,9.70
2023-10-02T04:25:07.249Z,10.10
2023-10-02T04:27:44.848Z,9.50
2023-10-02T04:30:16.110Z,10.00
2023-10-02T04:32:52.671Z,10.60
2023-10-02T04:35:39.119Z,10.50
2023-10-02T04:38:09.424Z,10.50
2023-10-02T04:40:45.730Z,10.40
2023-10-02T04:43:29.064Z,9.80
2023-10-02T04:46:12.069Z,9.60
2023-10-02T04:48:47.611Z,10.60
2023-10-02T04:51:17.172Z,11.10
2023-10-02T04:53:51.145Z,10.80
2023-10-02T04:56:28.622Z,10.10
2023-10-02T04:59:04.390Z,9.90
2023-10-02T05:01:44.463Z,11.20
2023-10-02T05:04:22.309Z,10.70
2023-10-02T05:07:27.959Z,11.20
2023-10-02T05:09:56.948Z,11.20
2023-10-02T05:12:24.992Z,10.80
2023-10-02T05:14:55.771Z,11.00
2023-10-02T05:17:41.408Z,10.40
2023-10-02T05:20:14.717Z,11.10
2023-10-02T05:22:43.667Z,10.60
2023-10-02T05:25:11.142Z,10.40
2023-10-02T05:27:44.400Z,11.20
2023-10-02T05:30:28.844Z,10.60
2023-10-02T05:36:18.566Z,10.50
2023-10-02T05:39:26.455Z,10.60
2023-10-02T05:42:11.091Z,10.30
2023-10-02T05:44:38.490Z,10.20
2023-10-02T05:47:07.005Z,11.10
2023-10-02T05:49:51.420Z,11.00
2023-10-02T05:52:29.794Z,11.00
2023-10-02T05:55:03.384Z,11.70
2023-10-02T05:58:18.329Z,12.10
2023-10-02T06:00:43.597Z,10.00
2023-10-02T06:03:12.545Z,11.10
2023-10-02T06:05:49.388Z,10.20
2023-10-02T06:08:24.708Z,11.80
2023-10-02T06:11:13.386Z,11.70
2023-10-02T06:13:40.752Z,11.70
2023-10-02T06:16:08.288Z,11.10
2023-10-02T06:18:44.448Z,11.50
2023-10-02T06:21:34.355Z,11.30
2023-10-02T06:25:02.614Z,10.80
2023-10-02T06:27:43.867Z,11.70
2023-10-02T06:32:54.714Z,10.70
2023-10-02T06:35:23.420Z,11.70
2023-10-02T06:41:29.937Z,12.10
2023-10-02T06:43:58.942Z,12.20
2023-10-02T06:49:34.255Z,12.50
2023-10-02T06:52:15.667Z,12.10
2023-10-02T06:54:49.832Z,11.60
2023-10-02T06:57:19.421Z,12.30
2023-10-02T06:59:55.032Z,12.50
2023-10-02T07:02:29.067Z,12.90
2023-10-02T07:04:57.737Z,12.00
2023-10-02T07:07:43.047Z,13.10
2023-10-02T07:10:16.591Z,12.00
2023-10-02T07:12:44.345Z,14.80
2023-10-02T07:15:13.205Z,13.40
2023-10-02T07:18:01.546Z,12.60
2023-10-02T07:20:43.453Z,12.80
2023-10-02T07:23:22.782Z,12.30
2023-10-02T07:25:53.646Z,11.80
2023-10-02T07:28:26.273Z,12.00
2023-10-02T07:59:11.210Z,12.20
2023-10-02T08:26:51.280Z,12.20
2023-10-02T08:45:38.489Z,12.70
2023-10-02T10:14:49.327Z,12.90
2023-10-02T10:41:29.948Z,12.80
2023-10-02T10:41:37.536Z,13.10
2023-10-02T11:11:40.425Z,13.30
2023-10-02T12:37:17.572Z,13.10
2023-10-02T17:12:51.116Z,9.80
2023-10-02T17:15:43.875Z,9.50
2023-10-02T17:25:36.236Z,11.50
2023-10-02T17:29:31.797Z,10.00
2023-10-02T17:32:17.048Z,10.40
2023-10-02T17:39:07.987Z,9.30
2023-10-02T17:47:56.134Z,10.60
2023-10-02T17:50:52.013Z,9.60
2023-10-02T17:54:24.421Z,8.00
2023-10-02T17:57:27.386Z,8.70
2023-10-02T18:00:33.827Z,8.30
2023-10-02T18:03:34.386Z,8.20
2023-10-02T18:07:55.376Z,9.70
2023-10-02T18:13:56.076Z,9.10
2023-10-02T18:17:06.753Z,8.80
2023-10-02T18:20:02.939Z,9.90
2023-10-02T18:32:37.051Z,15.80
2023-10-02T18:36:56.892Z,11.20
2023-10-02T18:59:03.879Z,11.30
2023-10-02T19:11:27.438Z,10.20
2023-10-02T19:14:19.240Z,8.30
2023-10-02T19:24:22.696Z,8.10
2023-10-02T19:27:43.763Z,7.40
2023-10-02T19:34:00.190Z,7.90
2023-10-02T19:36:57.462Z,7.80
2023-10-02T19:40:24.801Z,7.40
2023-10-02T19:43:10.243Z,7.40
2023-10-02T19:46:20.681Z,7.70
2023-10-02T19:49:04.512Z,7.50
2023-10-02T19:51:54.325Z,11.50
2023-10-02T19:54:29.520Z,9.70
2023-10-02T19:57:13.728Z,7.40
2023-10-02T20:03:19.507Z,8.20
2023-10-02T20:06:45.340Z,7.70
2023-10-02T20:09:27.059Z,7.70
2023-10-02T20:15:39.589Z,7.30
2023-10-02T20:18:28.948Z,7.20
2023-10-02T20:22:07.869Z,7.60
2023-10-02T20:24:36.549Z,7.60
2023-10-02T20:24:58.809Z,7.10
2023-10-02T20:30:34.620Z,7.80
2023-10-02T20:33:24.134Z,7.30
2023-10-02T20:36:01.505Z,7.30
2023-10-02T20:39:03.552Z,8.10
2023-10-02T20:48:35.175Z,7.60
2023-10-02T20:52:25.257Z,7.80
2023-10-02T20:55:27.601Z,8.80
2023-10-02T21:06:17.366Z,7.50
2023-10-02T21:09:58.539Z,7.00
2023-10-02T21:11:54.034Z,7.10
2023-10-02T21:14:41.417Z,7.70
2023-10-02T21:17:43.026Z,7.70
2023-10-02T21:20:44.968Z,7.30
2023-10-02T21:23:54.878Z,7.50
2023-10-02T21:29:54.826Z,6.50
2023-10-02T21:32:41.352Z,6.70
2023-10-02T21:32:49.340Z,8.40
2023-10-02T21:35:57.148Z,7.20
2023-10-02T21:43:02.023Z,7.30
2023-10-02T21:48:56.897Z,7.40
2023-10-02T21:50:52.155Z,8.20
2023-10-02T21:52:05.152Z,7.40
2023-10-02T21:54:52.881Z,6.80
2023-10-02T21:58:12.105Z,6.50
2023-10-02T22:10:41.675Z,7.50
2023-10-02T22:16:47.621Z,8.20
2023-10-02T22:19:37.380Z,7.50
2023-10-02T22:22:20.058Z,6.90
2023-10-02T22:24:50.714Z,6.30
2023-10-02T22:27:43.021Z,6.80
2023-10-02T22:39:42.113Z,6.30
2023-10-02T22:46:41.661Z,5.70
2023-10-02T22:49:51.284Z,5.70
2023-10-02T22:52:33.990Z,6.00
2023-10-02T22:58:19.160Z,5.00
2023-10-02T23:03:49.479Z,5.50
2023-10-02T23:07:01.076Z,5.40
2023-10-02T23:09:56.330Z,5.30
2023-10-02T23:16:06.637Z,4.60
2023-10-02T23:18:42.362Z,4.70
2023-10-02T23:22:16.302Z,4.90
2023-10-02T23:25:34.735Z,4.50
2023-10-02T23:28:38.651Z,5.00
2023-10-02T23:31:44.569Z,4.30
2023-10-02T23:36:25.419Z,4.70
2023-10-02T23:39:31.819Z,5.10
2023-10-02T23:42:08.439Z,4.40
2023-10-02T23:52:15.232Z,4.60
2023-10-02T23:56:23.883Z,4.80
2023-10-02T23:58:34.706Z,4.10
